createdAt,value
2017-07-15T00:00:07.973Z,66.10
2017-07-15T00:02:34.880Z,67.10
2017-07-15T00:05:01.095Z,66.60
2017-07-15T00:07:27.317Z,66.50
2017-07-15T00:09:53.504Z,66.00
2017-07-15T00:12:20.450Z,66.80
2017-07-15T00:14:47.385Z,66.80
2017-07-15T00:17:13.585Z,66.70
2017-07-15T00:19:39.752Z,65.70
2017-07-15T00:22:06.656Z,66.80
2017-07-15T00:24:33.640Z,65.80
2017-07-15T00:26:59.829Z,66.30
2017-07-15T00:29:26.047Z,65.70
2017-07-15T00:31:52.238Z,66.10
2017-07-15T00:34:19.167Z,66.80
2017-07-15T00:36:45.325Z,66.70
2017-07-15T00:39:11.516Z,66.80
2017-07-15T00:41:37.667Z,66.60
2017-07-15T00:44:04.627Z,66.80
2017-07-15T00:46:30.844Z,66.80
2017-07-15T00:48:57.756Z,67.10
2017-07-15T00:51:23.955Z,67.10
2017-07-15T00:53:50.082Z,66.40
2017-07-15T00:56:16.231Z,66.50
2017-07-15T00:58:42.429Z,66.90
2017-07-15T01:01:08.595Z,66.80
2017-07-15T01:03:34.770Z,66.80
2017-07-15T01:06:00.959Z,66.80
2017-07-15T01:08:27.148Z,67.40
2017-07-15T01:10:53.315Z,66.70
2017-07-15T01:13:19.567Z,67.40
2017-07-15T01:15:46.491Z,67.10
2017-07-15T01:18:12.705Z,66.70
2017-07-15T01:20:38.890Z,66.80
2017-07-15T01:23:05.414Z,67.00
2017-07-15T01:25:31.567Z,67.00
2017-07-15T01:27:57.749Z,67.30
2017-07-15T01:30:24.708Z,68.40
2017-07-15T01:32:51.644Z,68.80
2017-07-15T01:35:18.555Z,68.40
2017-07-15T01:37:44.786Z,67.60
2017-07-15T01:40:10.979Z,67.60
2017-07-15T01:42:37.196Z,68.20
2017-07-15T01:45:03.385Z,68.40
2017-07-15T01:47:29.555Z,68.00
2017-07-15T01:49:55.788Z,68.10
2017-07-15T01:52:21.988Z,68.00
2017-07-15T01:54:48.935Z,67.70
2017-07-15T01:57:15.895Z,67.70
2017-07-15T01:59:42.085Z,67.70
2017-07-15T02:02:08.252Z,67.30
2017-07-15T02:04:35.221Z,68.20
2017-07-15T02:07:01.426Z,67.30
2017-07-15T02:09:27.973Z,67.10
2017-07-15T02:11:54.205Z,66.80
2017-07-15T02:14:20.415Z,67.10
2017-07-15T02:16:47.312Z,67.20
2017-07-15T02:19:13.514Z,67.30
2017-07-15T02:21:39.690Z,67.40
2017-07-15T02:24:05.863Z,67.90
2017-07-15T02:26:32.046Z,67.70
2017-07-15T02:28:58.199Z,67.50
2017-07-15T02:31:25.131Z,67.90
2017-07-15T02:33:52.064Z,69.10
2017-07-15T02:36:18.316Z,68.50
2017-07-15T02:38:45.362Z,68.80
2017-07-15T02:41:12.316Z,68.40
2017-07-15T02:43:38.483Z,68.50
2017-07-15T02:46:04.904Z,68.60
2017-07-15T02:48:31.098Z,68.10
2017-07-15T02:50:58.092Z,68.00
2017-07-15T02:53:24.344Z,67.90
2017-07-15T02:55:50.520Z,68.30
2017-07-15T02:58:16.715Z,68.00
2017-07-15T03:00:42.908Z,67.90
2017-07-15T03:03:09.095Z,68.00
2017-07-15T03:05:35.560Z,67.50
2017-07-15T03:08:02.047Z,67.80
2017-07-15T03:10:28.395Z,67.50
2017-07-15T03:12:54.713Z,68.10
2017-07-15T03:15:21.708Z,67.90
2017-07-15T03:17:48.014Z,67.00
2017-07-15T03:20:14.308Z,67.40
2017-07-15T03:22:41.302Z,68.00
2017-07-15T03:25:07.531Z,67.20
2017-07-15T03:27:34.130Z,66.90
2017-07-15T03:30:00.364Z,66.60
2017-07-15T03:32:27.338Z,67.40
2017-07-15T03:34:53.523Z,67.80
2017-07-15T03:37:19.758Z,67.60
2017-07-15T03:39:46.723Z,67.10
2017-07-15T03:42:13.758Z,67.20
2017-07-15T03:44:40.703Z,67.10
2017-07-15T03:47:07.661Z,67.00
2017-07-15T03:49:34.566Z,66.90
2017-07-15T03:52:00.711Z,66.90
2017-07-15T03:54:28.147Z,66.80
2017-07-15T03:56:54.316Z,67.30
2017-07-15T03:59:21.244Z,68.00
2017-07-15T04:01:47.437Z,68.00
2017-07-15T04:04:13.639Z,68.30
2017-07-15T04:06:39.855Z,68.10
2017-07-15T04:09:06.810Z,69.60
2017-07-15T04:11:32.980Z,69.30
2017-07-15T04:13:59.159Z,70.00
2017-07-15T04:16:25.345Z,69.60
2017-07-15T04:18:51.511Z,70.10
2017-07-15T04:21:18.433Z,70.20
2017-07-15T04:23:44.616Z,70.10
2017-07-15T04:26:10.801Z,70.20
2017-07-15T04:28:37.747Z,70.30
2017-07-15T04:31:04.672Z,70.20
2017-07-15T04:33:30.938Z,69.90
2017-07-15T04:35:57.167Z,70.50
2017-07-15T04:38:24.119Z,70.90
2017-07-15T04:40:50.322Z,70.90
2017-07-15T04:43:16.477Z,70.50
2017-07-15T04:45:42.652Z,70.00
2017-07-15T04:48:08.860Z,69.00
2017-07-15T04:50:35.035Z,70.10
2017-07-15T04:53:01.989Z,68.80
2017-07-15T04:55:29.037Z,68.30
2017-07-15T04:57:55.964Z,67.20
2017-07-15T05:00:22.192Z,66.40
2017-07-15T05:02:48.383Z,64.90
2017-07-15T05:05:14.589Z,65.30
2017-07-15T05:07:40.779Z,65.40
2017-07-15T05:10:07.014Z,62.00
2017-07-15T05:12:33.182Z,62.50
2017-07-15T05:14:59.382Z,62.90
2017-07-15T05:17:26.408Z,62.60
2017-07-15T05:19:52.631Z,62.60
2017-07-15T05:22:18.918Z,63.10
2017-07-15T05:24:45.151Z,64.70
2017-07-15T05:27:11.498Z,63.80
2017-07-15T05:29:37.713Z,64.70
2017-07-15T05:32:03.897Z,63.40
2017-07-15T05:34:30.116Z,63.30
2017-07-15T05:36:56.701Z,63.40
2017-07-15T05:39:22.909Z,63.70
2017-07-15T05:41:49.876Z,63.20
2017-07-15T05:44:16.122Z,63.30
2017-07-15T05:46:42.368Z,62.40
2017-07-15T05:49:08.649Z,62.20
2017-07-15T05:51:34.852Z,62.20
2017-07-15T05:54:01.096Z,62.50
2017-07-15T05:56:28.055Z,61.10
2017-07-15T05:58:54.275Z,61.10
2017-07-15T06:01:21.213Z,61.50
2017-07-15T06:03:48.191Z,63.00
2017-07-15T06:06:14.416Z,62.70
2017-07-15T06:08:40.658Z,61.60
2017-07-15T06:11:06.845Z,61.70
2017-07-15T06:13:33.841Z,62.80
2017-07-15T06:16:00.024Z,62.10
2017-07-15T06:18:41.926Z,63.50
2017-07-15T06:21:08.923Z,62.10
2017-07-15T06:23:35.191Z,63.30
2017-07-15T06:26:02.138Z,63.30
2017-07-15T06:28:29.039Z,63.20
2017-07-15T06:30:55.224Z,62.70
2017-07-15T06:33:22.155Z,62.80
2017-07-15T06:35:49.101Z,61.50
2017-07-15T06:38:15.332Z,61.30
2017-07-15T06:40:42.351Z,61.80
2017-07-15T06:43:08.550Z,62.00
2017-07-15T06:45:34.742Z,55.30
2017-07-15T06:48:01.736Z,55.80
2017-07-15T06:50:27.918Z,55.20
2017-07-15T06:52:54.873Z,53.80
2017-07-15T06:55:21.548Z,53.00
2017-07-15T06:57:50.672Z,54.10
2017-07-15T07:00:16.916Z,55.40
2017-07-15T07:02:43.304Z,55.90
2017-07-15T07:05:09.532Z,56.10
2017-07-15T07:07:36.412Z,55.70
2017-07-15T07:10:03.370Z,55.10
2017-07-15T07:12:29.583Z,55.70
2017-07-15T07:14:55.798Z,55.60
2017-07-15T07:17:21.990Z,57.20
2017-07-15T07:19:48.188Z,55.80
2017-07-15T07:22:15.144Z,56.90
2017-07-15T07:24:42.116Z,57.10
2017-07-15T07:27:08.354Z,57.10
2017-07-15T07:29:34.527Z,58.20
2017-07-15T07:32:00.688Z,57.70
2017-07-15T07:34:27.444Z,57.90
2017-07-15T07:36:53.697Z,56.90
2017-07-15T07:39:19.922Z,57.60
2017-07-15T07:41:46.187Z,57.80
2017-07-15T07:44:12.336Z,57.20
2017-07-15T07:46:39.352Z,56.90
2017-07-15T07:49:05.556Z,55.30
2017-07-15T07:51:31.718Z,56.00
2017-07-15T07:53:57.942Z,55.60
2017-07-15T07:56:24.199Z,53.70
2017-07-15T07:58:51.118Z,49.50
2017-07-15T08:01:17.347Z,49.80
2017-07-15T08:03:44.478Z,50.60
2017-07-15T08:06:12.755Z,49.80
2017-07-15T08:08:39.098Z,50.10
2017-07-15T08:11:05.305Z,50.60
2017-07-15T08:13:31.496Z,51.60
2017-07-15T08:15:57.668Z,51.20
2017-07-15T08:18:23.839Z,51.20
2017-07-15T08:20:50.816Z,50.50
2017-07-15T08:23:17.002Z,50.50
2017-07-15T08:25:43.185Z,50.40
2017-07-15T08:28:09.407Z,51.10
2017-07-15T08:30:35.622Z,50.40
2017-07-15T08:33:01.786Z,52.50
2017-07-15T08:35:28.011Z,50.80
2017-07-15T08:37:54.176Z,51.00
2017-07-15T08:40:21.149Z,48.90
2017-07-15T08:42:47.340Z,48.90
2017-07-15T08:45:14.289Z,48.10
2017-07-15T08:47:41.206Z,47.50
2017-07-15T08:50:07.417Z,46.90
2017-07-15T08:52:33.614Z,48.00
2017-07-15T08:54:59.847Z,47.30
2017-07-15T08:57:26.043Z,46.90
2017-07-15T08:59:52.287Z,46.50
2017-07-15T09:02:19.200Z,45.40
2017-07-15T09:04:45.370Z,45.70
2017-07-15T09:07:11.956Z,46.10
2017-07-15T09:09:38.204Z,46.80
2017-07-15T09:12:04.402Z,47.60
2017-07-15T09:14:30.591Z,48.10
2017-07-15T09:16:56.784Z,51.10
2017-07-15T09:19:23.017Z,51.60
2017-07-15T09:21:49.212Z,50.10
2017-07-15T09:24:15.411Z,52.10
2017-07-15T09:26:41.584Z,50.60
2017-07-15T09:29:07.775Z,49.70
2017-07-15T09:31:34.016Z,48.90
2017-07-15T09:34:00.277Z,48.50
2017-07-15T09:36:27.275Z,48.60
2017-07-15T09:38:53.447Z,48.60
2017-07-15T09:41:19.647Z,49.60
2017-07-15T09:43:45.919Z,49.20
2017-07-15T09:46:12.116Z,50.90
2017-07-15T09:48:38.380Z,51.70
2017-07-15T09:51:04.566Z,52.90
2017-07-15T09:53:30.767Z,50.70
2017-07-15T09:55:57.732Z,52.90
2017-07-15T09:58:24.350Z,53.10
2017-07-15T10:00:50.911Z,51.60
2017-07-15T10:03:17.103Z,52.70
2017-07-15T10:05:44.040Z,52.70
2017-07-15T10:08:10.273Z,51.90
2017-07-15T10:10:37.281Z,52.10
2017-07-15T10:13:03.456Z,50.90
2017-07-15T10:15:30.450Z,53.50
2017-07-15T10:17:56.651Z,52.80
2017-07-15T10:20:22.866Z,51.70
2017-07-15T10:22:49.814Z,53.90
2017-07-15T10:25:17.107Z,53.10
2017-07-15T10:27:43.322Z,53.80
2017-07-15T10:30:09.496Z,52.20
2017-07-15T10:32:35.744Z,50.80
2017-07-15T10:35:02.797Z,52.60
2017-07-15T10:37:29.777Z,51.30
2017-07-15T10:39:56.027Z,51.40
2017-07-15T10:42:22.208Z,51.30
2017-07-15T10:44:49.138Z,51.20
2017-07-15T10:47:16.064Z,51.80
2017-07-15T10:49:42.256Z,51.50
2017-07-15T10:52:08.517Z,48.60
2017-07-15T10:54:34.747Z,48.30
2017-07-15T10:57:00.970Z,45.20
2017-07-15T10:59:27.556Z,44.30
2017-07-15T11:01:53.763Z,44.80
2017-07-15T11:04:21.475Z,47.10
2017-07-15T11:06:47.802Z,46.80
2017-07-15T11:09:13.992Z,48.20
2017-07-15T11:11:44.027Z,47.90
2017-07-15T11:14:10.262Z,47.60
2017-07-15T11:16:37.227Z,50.20
2017-07-15T11:19:03.470Z,50.70
2017-07-15T11:21:29.672Z,50.00
2017-07-15T11:23:55.888Z,50.60
2017-07-15T11:26:38.185Z,50.40
2017-07-15T11:29:05.232Z,47.90
2017-07-15T11:31:32.180Z,49.20
2017-07-15T11:33:59.113Z,48.60
2017-07-15T11:36:25.346Z,49.50
2017-07-15T11:38:51.601Z,49.40
2017-07-15T11:41:17.840Z,50.50
2017-07-15T11:43:45.092Z,51.00
2017-07-15T11:46:12.227Z,51.70
2017-07-15T11:48:40.059Z,50.90
2017-07-15T11:51:07.287Z,50.60
2017-07-15T11:53:34.665Z,52.10
2017-07-15T11:56:01.716Z,51.00
2017-07-15T11:58:27.980Z,52.00
2017-07-15T12:00:54.924Z,52.20
2017-07-15T12:03:22.140Z,51.50
2017-07-15T12:05:48.751Z,51.30
2017-07-15T12:08:15.234Z,50.80
2017-07-15T12:10:42.200Z,52.30
2017-07-15T12:13:10.113Z,51.70
2017-07-15T12:15:36.343Z,50.60
2017-07-15T12:18:02.980Z,50.60
2017-07-15T12:20:29.923Z,51.60
2017-07-15T12:22:57.014Z,52.50
2017-07-15T12:25:24.044Z,53.10
2017-07-15T12:27:50.322Z,52.20
2017-07-15T12:30:18.581Z,53.20
2017-07-15T12:32:44.994Z,52.50
2017-07-15T12:35:11.172Z,50.90
2017-07-15T12:37:37.366Z,50.20
2017-07-15T12:40:03.947Z,50.00
2017-07-15T12:42:30.201Z,50.50
2017-07-15T12:44:56.406Z,49.30
2017-07-15T12:47:22.625Z,50.20
2017-07-15T12:49:50.278Z,46.20
2017-07-15T12:52:16.469Z,45.00
2017-07-15T12:54:43.451Z,45.60
2017-07-15T12:57:10.528Z,46.20
2017-07-15T12:59:37.259Z,47.40
2017-07-15T13:02:04.361Z,47.80
2017-07-15T13:08:01.164Z,48.40
2017-07-15T13:10:27.529Z,48.90
2017-07-15T13:12:53.743Z,46.00
2017-07-15T13:15:19.913Z,45.60
2017-07-15T13:17:46.844Z,45.40
2017-07-15T13:20:13.054Z,43.90
2017-07-15T13:22:39.298Z,44.60
2017-07-15T13:25:06.610Z,46.50
2017-07-15T13:27:33.560Z,45.10
2017-07-15T13:30:02.457Z,44.80
2017-07-15T13:32:29.023Z,44.80
2017-07-15T13:34:55.216Z,46.30
2017-07-15T13:37:21.442Z,47.80
2017-07-15T13:39:47.936Z,45.70
2017-07-15T13:42:14.117Z,47.40
2017-07-15T13:44:40.334Z,46.70
2017-07-15T13:47:06.866Z,45.90
2017-07-15T13:49:34.847Z,45.50
2017-07-15T13:52:01.088Z,44.80
2017-07-15T13:54:27.351Z,45.00
2017-07-15T13:56:54.457Z,44.70
2017-07-15T13:59:20.980Z,44.40
2017-07-15T14:01:49.928Z,45.70
2017-07-15T14:04:16.880Z,46.20
2017-07-15T14:06:43.096Z,46.70
2017-07-15T14:09:09.309Z,47.50
2017-07-15T14:11:35.462Z,46.30
2017-07-15T14:14:01.634Z,47.00
2017-07-15T14:16:27.860Z,47.50
2017-07-15T14:18:54.071Z,48.20
2017-07-15T14:21:21.047Z,48.70
2017-07-15T14:23:47.252Z,48.70
2017-07-15T14:26:13.461Z,50.30
2017-07-15T14:28:40.417Z,48.40
2017-07-15T14:31:07.371Z,47.30
2017-07-15T14:33:33.598Z,45.00
2017-07-15T14:36:00.523Z,46.70
2017-07-15T14:38:26.719Z,46.60
2017-07-15T14:40:52.949Z,46.70
2017-07-15T14:43:19.124Z,45.60
2017-07-15T14:45:46.128Z,45.50
2017-07-15T14:48:12.322Z,45.40
2017-07-15T14:50:38.510Z,45.30
2017-07-15T14:53:05.502Z,45.90
2017-07-15T14:55:31.718Z,45.10
2017-07-15T14:57:57.903Z,45.60
2017-07-15T15:00:24.141Z,45.50
2017-07-15T15:02:50.328Z,44.50
2017-07-15T15:05:16.567Z,45.10
2017-07-15T15:07:42.897Z,45.10
2017-07-15T15:10:09.133Z,45.50
2017-07-15T15:12:35.368Z,47.20
2017-07-15T15:15:01.566Z,47.00
2017-07-15T15:17:27.818Z,46.60
2017-07-15T15:19:54.023Z,46.10
2017-07-15T15:22:20.221Z,46.70
2017-07-15T15:24:47.180Z,47.20
2017-07-15T15:27:13.387Z,45.90
2017-07-15T15:29:40.359Z,46.30
2017-07-15T15:32:06.911Z,45.10
2017-07-15T15:34:33.097Z,46.90
2017-07-15T15:37:00.954Z,45.70
2017-07-15T15:39:27.143Z,45.60
2017-07-15T15:41:53.351Z,44.70
2017-07-15T15:44:19.592Z,45.20
2017-07-15T15:46:45.767Z,45.80
2017-07-15T15:49:12.017Z,45.40
2017-07-15T15:51:38.958Z,45.40
2017-07-15T15:54:05.172Z,45.50
2017-07-15T15:56:32.150Z,45.90
2017-07-15T15:58:58.387Z,45.90
2017-07-15T16:01:24.621Z,45.70
2017-07-15T16:03:50.793Z,46.10
2017-07-15T16:06:16.987Z,45.00
2017-07-15T16:08:43.235Z,45.70
2017-07-15T16:11:09.416Z,45.20
2017-07-15T16:13:36.626Z,45.00
2017-07-15T16:16:02.900Z,44.80
2017-07-15T16:18:29.160Z,45.10
2017-07-15T16:20:55.701Z,44.80
2017-07-15T16:23:21.894Z,44.50
2017-07-15T16:25:48.109Z,44.70
2017-07-15T16:28:16.391Z,45.00
2017-07-15T16:30:42.675Z,44.60
2017-07-15T16:33:09.226Z,43.60
2017-07-15T16:35:35.420Z,45.10
2017-07-15T16:38:01.760Z,45.60
2017-07-15T16:40:27.995Z,44.50
2017-07-15T16:42:54.176Z,45.00
2017-07-15T16:45:21.156Z,44.90
2017-07-15T16:47:47.327Z,44.90
2017-07-15T16:50:14.282Z,44.10
2017-07-15T16:52:41.288Z,46.20
2017-07-15T16:55:07.461Z,45.50
2017-07-15T16:57:34.392Z,45.50
2017-07-15T17:00:00.625Z,45.60
2017-07-15T17:02:26.864Z,44.80
2017-07-15T17:04:53.758Z,45.60
2017-07-15T17:07:19.974Z,45.50
2017-07-15T17:09:46.178Z,45.30
2017-07-15T17:12:13.090Z,45.60
2017-07-15T17:14:39.290Z,45.50
2017-07-15T17:17:05.463Z,45.20
2017-07-15T17:19:31.651Z,46.60
2017-07-15T17:21:57.883Z,47.20
2017-07-15T17:24:24.066Z,46.10
2017-07-15T17:26:50.988Z,46.60
2017-07-15T17:29:17.267Z,45.60
2017-07-15T17:31:44.770Z,44.50
2017-07-15T17:34:13.702Z,44.30
2017-07-15T17:36:39.908Z,46.10
2017-07-15T17:39:06.936Z,44.70
2017-07-15T17:41:33.138Z,44.60
2017-07-15T17:43:59.362Z,45.80
2017-07-15T17:46:25.571Z,46.10
2017-07-15T17:48:51.748Z,46.30
2017-07-15T17:51:17.959Z,44.60
2017-07-15T17:53:44.211Z,45.50
2017-07-15T17:56:10.424Z,47.10
2017-07-15T17:58:36.664Z,47.00
2017-07-15T18:01:02.871Z,47.00
2017-07-15T18:03:29.068Z,46.90
2017-07-15T18:05:55.319Z,47.10
2017-07-15T18:08:21.526Z,46.80
2017-07-15T18:10:47.768Z,46.70
2017-07-15T18:13:13.997Z,47.20
2017-07-15T18:15:40.265Z,47.00
2017-07-15T18:18:06.489Z,47.30
2017-07-15T18:20:32.700Z,47.50
2017-07-15T18:22:58.952Z,47.40
2017-07-15T18:25:25.145Z,47.20
2017-07-15T18:27:51.368Z,47.00
2017-07-15T18:30:17.598Z,47.90
2017-07-15T18:32:43.819Z,47.90
2017-07-15T18:35:10.008Z,48.90
2017-07-15T18:37:36.224Z,47.50
2017-07-15T18:40:02.411Z,48.90
2017-07-15T18:42:28.605Z,48.50
2017-07-15T18:44:55.569Z,50.40
2017-07-15T18:47:22.770Z,50.30
2017-07-15T18:49:48.980Z,49.60
2017-07-15T18:52:15.209Z,49.50
2017-07-15T18:54:41.439Z,50.10
2017-07-15T18:57:07.689Z,50.00
2017-07-15T18:59:33.868Z,50.50
2017-07-15T19:02:00.039Z,51.20
2017-07-15T19:04:26.244Z,50.60
2017-07-15T19:06:52.469Z,51.20
2017-07-15T19:09:18.644Z,51.80
2017-07-15T19:11:44.907Z,52.20
2017-07-15T19:14:11.129Z,52.30
2017-07-15T19:16:38.080Z,52.80
2017-07-15T19:19:05.025Z,53.80
2017-07-15T19:21:31.967Z,53.60
2017-07-15T19:23:58.994Z,53.90
2017-07-15T19:26:25.272Z,53.30
2017-07-15T19:28:52.231Z,53.60
2017-07-15T19:31:18.451Z,54.20
2017-07-15T19:33:44.663Z,53.80
2017-07-15T19:36:11.862Z,54.30
2017-07-15T19:38:39.108Z,54.60
2017-07-15T19:41:05.357Z,54.70
2017-07-15T19:43:32.372Z,55.20
2017-07-15T19:45:58.560Z,55.80
2017-07-15T19:48:25.589Z,55.60
2017-07-15T19:50:51.844Z,54.90
2017-07-15T19:53:18.101Z,55.10
2017-07-15T19:55:44.300Z,55.40
2017-07-15T19:58:11.245Z,56.10
2017-07-15T20:00:38.180Z,56.40
2017-07-15T20:03:05.140Z,56.00
2017-07-15T20:05:31.363Z,56.00
2017-07-15T20:07:58.367Z,56.30
2017-07-15T20:10:24.625Z,56.10
2017-07-15T20:12:51.607Z,55.60
2017-07-15T20:15:17.764Z,56.10
2017-07-15T20:17:44.012Z,56.00
2017-07-15T20:20:10.213Z,55.50
2017-07-15T20:22:36.426Z,56.60
2017-07-15T20:25:02.613Z,55.70
2017-07-15T20:27:28.824Z,55.60
2017-07-15T20:29:55.098Z,56.20
2017-07-15T20:32:21.395Z,56.30
2017-07-15T20:34:47.603Z,55.90
2017-07-15T20:37:13.925Z,56.50
2017-07-15T20:39:40.145Z,56.20
2017-07-15T20:42:06.396Z,56.80
2017-07-15T20:44:32.569Z,57.00
2017-07-15T20:46:58.796Z,57.20
2017-07-15T20:49:25.029Z,57.20
2017-07-15T20:51:51.303Z,57.10
2017-07-15T20:54:17.576Z,58.00
2017-07-15T20:56:44.501Z,57.00
2017-07-15T20:59:10.722Z,57.00
2017-07-15T21:01:36.903Z,57.00
2017-07-15T21:04:03.157Z,57.00
2017-07-15T21:06:29.391Z,57.00
2017-07-15T21:08:55.590Z,57.70
2017-07-15T21:11:21.888Z,56.90
2017-07-15T21:13:48.111Z,57.60
2017-07-15T21:16:15.096Z,58.70
2017-07-15T21:18:41.285Z,58.20
2017-07-15T21:21:07.597Z,58.40
2017-07-15T21:23:33.821Z,57.50
2017-07-15T21:26:00.064Z,58.20
2017-07-15T21:28:26.277Z,57.70
2017-07-15T21:30:52.500Z,57.90
2017-07-15T21:33:18.719Z,57.20
2017-07-15T21:35:44.976Z,57.40
2017-07-15T21:38:11.246Z,56.50
2017-07-15T21:40:37.517Z,57.30
2017-07-15T21:43:03.799Z,57.60
2017-07-15T21:45:31.027Z,57.70
2017-07-15T21:47:57.235Z,57.70
2017-07-15T21:50:23.397Z,57.60
2017-07-15T21:52:50.357Z,58.70
2017-07-15T21:55:17.075Z,58.00
2017-07-15T21:57:43.286Z,58.00
2017-07-15T22:00:09.547Z,58.40
2017-07-15T22:02:36.521Z,59.10
2017-07-15T22:05:02.739Z,58.90
2017-07-15T22:07:28.909Z,59.10
2017-07-15T22:09:55.092Z,60.10
2017-07-15T22:12:21.301Z,60.30
2017-07-15T22:14:48.268Z,59.00
2017-07-15T22:17:14.517Z,58.90
2017-07-15T22:19:40.897Z,58.80
2017-07-15T22:22:07.095Z,58.80
2017-07-15T22:24:33.272Z,59.10
2017-07-15T22:27:00.357Z,59.30
2017-07-15T22:29:26.600Z,58.80
2017-07-15T22:31:53.605Z,59.10
2017-07-15T22:34:20.596Z,59.70
2017-07-15T22:36:48.363Z,59.20
2017-07-15T22:39:14.606Z,59.40
2017-07-15T22:41:40.820Z,60.10
2017-07-15T22:44:06.999Z,59.40
2017-07-15T22:46:33.951Z,60.50
2017-07-15T22:49:00.147Z,60.10
2017-07-15T22:51:26.341Z,59.90
2017-07-15T22:53:52.736Z,59.80
2017-07-15T22:56:19.724Z,60.70
2017-07-15T22:58:47.001Z,60.00
2017-07-15T23:01:14.007Z,59.20
2017-07-15T23:03:40.719Z,59.50
2017-07-15T23:06:07.331Z,59.60
2017-07-15T23:08:33.576Z,60.00
2017-07-15T23:11:00.160Z,59.40
2017-07-15T23:13:26.382Z,59.60
2017-07-15T23:15:52.575Z,60.00
2017-07-15T23:18:19.264Z,60.00
2017-07-15T23:20:46.625Z,59.70
2017-07-15T23:23:12.936Z,60.80
2017-07-15T23:25:39.129Z,60.00
2017-07-15T23:28:05.701Z,60.00
2017-07-15T23:30:31.900Z,60.00
2017-07-15T23:32:58.843Z,60.70
2017-07-15T23:35:25.818Z,60.60
2017-07-15T23:37:52.010Z,59.90
2017-07-15T23:40:18.191Z,59.80
2017-07-15T23:42:45.164Z,59.70
2017-07-15T23:45:11.380Z,60.20
2017-07-15T23:47:37.712Z,59.90
2017-07-15T23:50:03.976Z,60.10
2017-07-15T23:52:30.227Z,60.30
2017-07-15T23:54:57.181Z,61.10
2017-07-15T23:57:23.350Z,60.80
2017-07-15T23:59:49.697Z,61.50
